sensor_id;sensor_type;location;lat;lon;timestamp;temperature;humidity
18091;DHT22;9172;49.948;9.208;2023-02-23T00:01:55;9.50;99.90
18091;DHT22;9172;49.948;9.208;2023-02-23T00:04:24;9.50;99.90
18091;DHT22;9172;49.948;9.208;2023-02-23T00:06:55;9.50;99.90
18091;DHT22;9172;49.948;9.208;2023-02-23T00:09:23;9.50;99.90
18091;DHT22;9172;49.948;9.208;2023-02-23T00:11:56;9.50;99.90
18091;DHT22;9172;49.948;9.208;2023-02-23T00:14:26;9.50;99.90
18091;DHT22;9172;49.948;9.208;2023-02-23T00:16:55;9.50;99.90
18091;DHT22;9172;49.948;9.208;2023-02-23T00:19:24;9.50;99.90
18091;DHT22;9172;49.948;9.208;2023-02-23T00:21:53;9.50;99.90
18091;DHT22;9172;49.948;9.208;2023-02-23T00:24:24;9.50;99.90
18091;DHT22;9172;49.948;9.208;2023-02-23T00:26:53;9.50;99.90
18091;DHT22;9172;49.948;9.208;2023-02-23T00:29:23;9.50;99.90
18091;DHT22;9172;49.948;9.208;2023-02-23T00:31:52;9.50;99.90
18091;DHT22;9172;49.948;9.208;2023-02-23T00:34:22;9.50;99.90
18091;DHT22;9172;49.948;9.208;2023-02-23T00:36:52;9.50;99.90
18091;DHT22;9172;49.948;9.208;2023-02-23T00:39:22;9.50;99.90
18091;DHT22;9172;49.948;9.208;2023-02-23T00:41:54;9.50;99.90
18091;DHT22;9172;49.948;9.208;2023-02-23T00:44:25;9.50;99.90
18091;DHT22;9172;49.948;9.208;2023-02-23T00:46:54;9.50;99.90
18091;DHT22;9172;49.948;9.208;2023-02-23T00:49:23;9.50;99.90
18091;DHT22;9172;49.948;9.208;2023-02-23T00:51:52;9.50;99.90
18091;DHT22;9172;49.948;9.208;2023-02-23T00:54:21;9.50;99.90
18091;DHT22;9172;49.948;9.208;2023-02-23T00:56:50;9.40;99.90
18091;DHT22;9172;49.948;9.208;2023-02-23T00:59:19;9.40;99.90
18091;DHT22;9172;49.948;9.208;2023-02-23T01:01:49;9.30;99.90
18091;DHT22;9172;49.948;9.208;2023-02-23T01:04:18;9.30;99.90
18091;DHT22;9172;49.948;9.208;2023-02-23T01:06:47;9.30;99.90
18091;DHT22;9172;49.948;9.208;2023-02-23T01:09:17;9.30;99.90
18091;DHT22;9172;49.948;9.208;2023-02-23T01:11:49;9.30;99.90
18091;DHT22;9172;49.948;9.208;2023-02-23T01:14:17;9.30;99.90
18091;DHT22;9172;49.948;9.208;2023-02-23T01:16:47;9.30;99.90
18091;DHT22;9172;49.948;9.208;2023-02-23T01:19:16;9.40;99.90
18091;DHT22;9172;49.948;9.208;2023-02-23T01:21:46;9.40;99.90
18091;DHT22;9172;49.948;9.208;2023-02-23T01:24:15;9.40;99.90
18091;DHT22;9172;49.948;9.208;2023-02-23T01:26:45;9.40;99.90
18091;DHT22;9172;49.948;9.208;2023-02-23T01:29:16;9.50;99.90
18091;DHT22;9172;49.948;9.208;2023-02-23T01:31:46;9.50;99.90
18091;DHT22;9172;49.948;9.208;2023-02-23T01:34:18;9.50;99.90
18091;DHT22;9172;49.948;9.208;2023-02-23T01:36:49;9.50;99.90
18091;DHT22;9172;49.948;9.208;2023-02-23T01:39:19;9.50;99.90
18091;DHT22;9172;49.948;9.208;2023-02-23T01:41:48;9.50;99.90
18091;DHT22;9172;49.948;9.208;2023-02-23T01:47:26;9.60;99.90
18091;DHT22;9172;49.948;9.208;2023-02-23T01:49:55;9.60;99.90
18091;DHT22;9172;49.948;9.208;2023-02-23T01:52:26;9.60;99.90
18091;DHT22;9172;49.948;9.208;2023-02-23T01:54:55;9.50;99.90
18091;DHT22;9172;49.948;9.208;2023-02-23T01:57:24;9.50;99.90
18091;DHT22;9172;49.948;9.208;2023-02-23T01:59:53;9.50;99.90
18091;DHT22;9172;49.948;9.208;2023-02-23T02:02:25;9.60;99.90
18091;DHT22;9172;49.948;9.208;2023-02-23T02:04:57;9.60;99.90
18091;DHT22;9172;49.948;9.208;2023-02-23T02:07:28;9.60;99.90
18091;DHT22;9172;49.948;9.208;2023-02-23T02:10:00;9.60;99.90
18091;DHT22;9172;49.948;9.208;2023-02-23T02:12:49;9.50;99.90
18091;DHT22;9172;49.948;9.208;2023-02-23T02:15:19;9.60;99.90
18091;DHT22;9172;49.948;9.208;2023-02-23T02:17:54;9.50;99.90
18091;DHT22;9172;49.948;9.208;2023-02-23T02:26:28;9.60;99.90
18091;DHT22;9172;49.948;9.208;2023-02-23T02:29:27;9.60;99.90
18091;DHT22;9172;49.948;9.208;2023-02-23T02:32:21;9.60;99.90
18091;DHT22;9172;49.948;9.208;2023-02-23T02:35:18;9.60;99.90
18091;DHT22;9172;49.948;9.208;2023-02-23T02:37:54;9.60;99.90
18091;DHT22;9172;49.948;9.208;2023-02-23T02:46:58;9.60;99.90
18091;DHT22;9172;49.948;9.208;2023-02-23T02:49:29;9.60;99.90
18091;DHT22;9172;49.948;9.208;2023-02-23T02:52:02;9.60;99.90
18091;DHT22;9172;49.948;9.208;2023-02-23T02:57:13;9.60;99.90
18091;DHT22;9172;49.948;9.208;2023-02-23T02:59:45;9.60;99.90
18091;DHT22;9172;49.948;9.208;2023-02-23T03:02:33;9.60;99.90
18091;DHT22;9172;49.948;9.208;2023-02-23T03:05:23;9.60;99.90
18091;DHT22;9172;49.948;9.208;2023-02-23T03:08:14;9.60;99.90
18091;DHT22;9172;49.948;9.208;2023-02-23T03:11:04;9.60;99.90
18091;DHT22;9172;49.948;9.208;2023-02-23T03:30:07;9.60;99.90
18091;DHT22;9172;49.948;9.208;2023-02-23T03:32:57;9.60;99.90
18091;DHT22;9172;49.948;9.208;2023-02-23T03:35:47;9.50;99.90
18091;DHT22;9172;49.948;9.208;2023-02-23T03:38:35;9.50;99.90
18091;DHT22;9172;49.948;9.208;2023-02-23T03:41:24;9.40;99.90
18091;DHT22;9172;49.948;9.208;2023-02-23T03:46:52;9.40;99.90
18091;DHT22;9172;49.948;9.208;2023-02-23T03:49:41;9.30;99.90
18091;DHT22;9172;49.948;9.208;2023-02-23T03:52:30;9.30;99.90
18091;DHT22;9172;49.948;9.208;2023-02-23T03:55:19;9.30;99.90
18091;DHT22;9172;49.948;9.208;2023-02-23T03:58:07;9.30;99.90
18091;DHT22;9172;49.948;9.208;2023-02-23T04:00:56;9.30;99.90
18091;DHT22;9172;49.948;9.208;2023-02-23T04:03:45;9.30;99.90
18091;DHT22;9172;49.948;9.208;2023-02-23T04:06:35;9.30;99.90
18091;DHT22;9172;49.948;9.208;2023-02-23T04:09:22;9.30;99.90
18091;DHT22;9172;49.948;9.208;2023-02-23T04:12:12;9.30;99.90
18091;DHT22;9172;49.948;9.208;2023-02-23T04:15:01;9.30;99.90
18091;DHT22;9172;49.948;9.208;2023-02-23T04:17:30;9.30;99.90
18091;DHT22;9172;49.948;9.208;2023-02-23T04:20:00;9.40;99.90
18091;DHT22;9172;49.948;9.208;2023-02-23T04:22:28;9.40;99.90
18091;DHT22;9172;49.948;9.208;2023-02-23T04:24:58;9.40;99.90
18091;DHT22;9172;49.948;9.208;2023-02-23T04:27:28;9.40;99.90
18091;DHT22;9172;49.948;9.208;2023-02-23T04:29:57;9.40;99.90
18091;DHT22;9172;49.948;9.208;2023-02-23T04:32:26;9.40;99.90
18091;DHT22;9172;49.948;9.208;2023-02-23T04:34:55;9.40;99.90
18091;DHT22;9172;49.948;9.208;2023-02-23T04:40:01;9.40;99.90
18091;DHT22;9172;49.948;9.208;2023-02-23T04:42:29;9.50;99.90
18091;DHT22;9172;49.948;9.208;2023-02-23T04:44:58;9.50;99.90
18091;DHT22;9172;49.948;9.208;2023-02-23T04:47:28;9.50;99.90
18091;DHT22;9172;49.948;9.208;2023-02-23T04:49:57;9.50;99.90
18091;DHT22;9172;49.948;9.208;2023-02-23T04:52:27;9.50;99.90
18091;DHT22;9172;49.948;9.208;2023-02-23T04:54:55;9.50;99.90
18091;DHT22;9172;49.948;9.208;2023-02-23T04:57:25;9.50;99.90
18091;DHT22;9172;49.948;9.208;2023-02-23T04:59:53;9.50;99.90
18091;DHT22;9172;49.948;9.208;2023-02-23T05:02:23;9.50;99.90
18091;DHT22;9172;49.948;9.208;2023-02-23T05:04:52;9.50;99.90
18091;DHT22;9172;49.948;9.208;2023-02-23T05:07:21;9.50;99.90
18091;DHT22;9172;49.948;9.208;2023-02-23T05:09:50;9.50;99.90
18091;DHT22;9172;49.948;9.208;2023-02-23T05:12:20;9.50;99.90
18091;DHT22;9172;49.948;9.208;2023-02-23T05:14:49;9.50;99.90
18091;DHT22;9172;49.948;9.208;2023-02-23T05:17:17;9.50;99.90
18091;DHT22;9172;49.948;9.208;2023-02-23T05:19:47;9.50;99.90
18091;DHT22;9172;49.948;9.208;2023-02-23T05:22:15;9.50;99.90
18091;DHT22;9172;49.948;9.208;2023-02-23T05:24:44;9.50;99.90
18091;DHT22;9172;49.948;9.208;2023-02-23T05:27:13;9.50;99.90
18091;DHT22;9172;49.948;9.208;2023-02-23T05:29:41;9.60;99.90
18091;DHT22;9172;49.948;9.208;2023-02-23T05:32:11;9.60;99.90
18091;DHT22;9172;49.948;9.208;2023-02-23T05:34:39;9.60;99.90
18091;DHT22;9172;49.948;9.208;2023-02-23T05:37:08;9.60;99.90
18091;DHT22;9172;49.948;9.208;2023-02-23T05:39:38;9.60;99.90
18091;DHT22;9172;49.948;9.208;2023-02-23T05:42:06;9.60;99.90
18091;DHT22;9172;49.948;9.208;2023-02-23T05:44:36;9.60;99.90
18091;DHT22;9172;49.948;9.208;2023-02-23T05:47:05;9.60;99.90
18091;DHT22;9172;49.948;9.208;2023-02-23T05:49:35;9.50;99.90
18091;DHT22;9172;49.948;9.208;2023-02-23T05:52:04;9.50;99.90
18091;DHT22;9172;49.948;9.208;2023-02-23T05:54:33;9.50;99.90
18091;DHT22;9172;49.948;9.208;2023-02-23T05:57:05;9.50;99.90
18091;DHT22;9172;49.948;9.208;2023-02-23T05:59:35;9.50;99.90
18091;DHT22;9172;49.948;9.208;2023-02-23T06:02:03;9.50;99.90
18091;DHT22;9172;49.948;9.208;2023-02-23T06:04:32;9.50;99.90
18091;DHT22;9172;49.948;9.208;2023-02-23T06:07:00;9.50;99.90
18091;DHT22;9172;49.948;9.208;2023-02-23T06:09:30;9.50;99.90
18091;DHT22;9172;49.948;9.208;2023-02-23T06:11:59;9.50;99.90
18091;DHT22;9172;49.948;9.208;2023-02-23T06:14:28;9.50;99.90
18091;DHT22;9172;49.948;9.208;2023-02-23T06:16:56;9.50;99.90
18091;DHT22;9172;49.948;9.208;2023-02-23T06:19:27;9.50;99.90
18091;DHT22;9172;49.948;9.208;2023-02-23T06:21:56;9.50;99.90
18091;DHT22;9172;49.948;9.208;2023-02-23T06:24:25;9.50;99.90
18091;DHT22;9172;49.948;9.208;2023-02-23T06:26:54;9.50;99.90
18091;DHT22;9172;49.948;9.208;2023-02-23T06:29:23;9.50;99.90
18091;DHT22;9172;49.948;9.208;2023-02-23T06:31:53;9.50;99.90
18091;DHT22;9172;49.948;9.208;2023-02-23T06:34:21;9.50;99.90
18091;DHT22;9172;49.948;9.208;2023-02-23T06:36:50;9.50;99.90
18091;DHT22;9172;49.948;9.208;2023-02-23T06:39:18;9.50;99.90
18091;DHT22;9172;49.948;9.208;2023-02-23T06:41:48;9.60;99.90
18091;DHT22;9172;49.948;9.208;2023-02-23T06:44:18;9.60;99.90
18091;DHT22;9172;49.948;9.208;2023-02-23T06:46:47;9.60;99.90
18091;DHT22;9172;49.948;9.208;2023-02-23T06:49:16;9.60;99.90
18091;DHT22;9172;49.948;9.208;2023-02-23T06:51:44;9.50;99.90
18091;DHT22;9172;49.948;9.208;2023-02-23T06:54:13;9.60;99.90
18091;DHT22;9172;49.948;9.208;2023-02-23T06:56:44;9.60;99.90
18091;DHT22;9172;49.948;9.208;2023-02-23T06:59:14;9.60;99.90
18091;DHT22;9172;49.948;9.208;2023-02-23T07:01:44;9.60;99.90
18091;DHT22;9172;49.948;9.208;2023-02-23T07:04:13;9.60;99.90
18091;DHT22;9172;49.948;9.208;2023-02-23T07:06:42;9.60;99.90
18091;DHT22;9172;49.948;9.208;2023-02-23T07:09:11;9.60;99.90
18091;DHT22;9172;49.948;9.208;2023-02-23T07:11:40;9.60;99.90
18091;DHT22;9172;49.948;9.208;2023-02-23T07:14:12;9.60;99.90
18091;DHT22;9172;49.948;9.208;2023-02-23T07:16:41;9.60;99.90
18091;DHT22;9172;49.948;9.208;2023-02-23T07:19:09;9.60;99.90
18091;DHT22;9172;49.948;9.208;2023-02-23T07:21:40;9.60;99.90
18091;DHT22;9172;49.948;9.208;2023-02-23T07:24:10;9.60;99.90
18091;DHT22;9172;49.948;9.208;2023-02-23T07:26:40;9.60;99.90
18091;DHT22;9172;49.948;9.208;2023-02-23T07:29:11;9.60;99.90
18091;DHT22;9172;49.948;9.208;2023-02-23T07:31:40;9.60;99.90
18091;DHT22;9172;49.948;9.208;2023-02-23T07:34:09;9.70;99.90
18091;DHT22;9172;49.948;9.208;2023-02-23T07:36:39;9.70;99.90
18091;DHT22;9172;49.948;9.208;2023-02-23T07:39:07;9.60;99.90
18091;DHT22;9172;49.948;9.208;2023-02-23T07:41:37;9.60;99.90
18091;DHT22;9172;49.948;9.208;2023-02-23T07:44:06;9.60;99.90
18091;DHT22;9172;49.948;9.208;2023-02-23T07:46:35;9.60;99.90
18091;DHT22;9172;49.948;9.208;2023-02-23T07:49:04;9.60;99.90
18091;DHT22;9172;49.948;9.208;2023-02-23T07:51:32;9.60;99.90
18091;DHT22;9172;49.948;9.208;2023-02-23T07:54:03;9.60;99.90
18091;DHT22;9172;49.948;9.208;2023-02-23T07:56:32;9.60;99.90
18091;DHT22;9172;49.948;9.208;2023-02-23T07:59:01;9.70;99.90
18091;DHT22;9172;49.948;9.208;2023-02-23T08:01:31;9.70;99.90
18091;DHT22;9172;49.948;9.208;2023-02-23T08:03:59;9.70;99.90
18091;DHT22;9172;49.948;9.208;2023-02-23T08:06:29;9.70;99.90
18091;DHT22;9172;49.948;9.208;2023-02-23T08:09:00;9.60;99.90
18091;DHT22;9172;49.948;9.208;2023-02-23T08:11:29;9.70;99.90
18091;DHT22;9172;49.948;9.208;2023-02-23T08:13:59;9.60;99.90
18091;DHT22;9172;49.948;9.208;2023-02-23T08:16:30;9.60;99.90
18091;DHT22;9172;49.948;9.208;2023-02-23T08:18:59;9.70;99.90
18091;DHT22;9172;49.948;9.208;2023-02-23T08:24:07;9.70;99.90
18091;DHT22;9172;49.948;9.208;2023-02-23T08:26:37;9.70;99.90
18091;DHT22;9172;49.948;9.208;2023-02-23T08:29:06;9.70;99.90
18091;DHT22;9172;49.948;9.208;2023-02-23T08:31:35;9.70;99.90
18091;DHT22;9172;49.948;9.208;2023-02-23T08:34:03;9.70;99.90
18091;DHT22;9172;49.948;9.208;2023-02-23T08:36:33;9.70;99.90
18091;DHT22;9172;49.948;9.208;2023-02-23T08:39:02;9.70;99.90
18091;DHT22;9172;49.948;9.208;2023-02-23T08:44:16;9.70;99.90
18091;DHT22;9172;49.948;9.208;2023-02-23T08:46:45;9.70;99.90
18091;DHT22;9172;49.948;9.208;2023-02-23T08:51:51;9.70;99.90
18091;DHT22;9172;49.948;9.208;2023-02-23T08:54:21;9.70;99.90
18091;DHT22;9172;49.948;9.208;2023-02-23T08:56:50;9.70;99.90
18091;DHT22;9172;49.948;9.208;2023-02-23T08:59:22;9.80;99.90
18091;DHT22;9172;49.948;9.208;2023-02-23T09:01:50;9.80;99.90
18091;DHT22;9172;49.948;9.208;2023-02-23T09:04:19;9.70;99.90
18091;DHT22;9172;49.948;9.208;2023-02-23T09:06:49;9.70;99.90
18091;DHT22;9172;49.948;9.208;2023-02-23T09:09:17;9.70;99.90
18091;DHT22;9172;49.948;9.208;2023-02-23T09:11:47;9.80;99.90
18091;DHT22;9172;49.948;9.208;2023-02-23T09:14:15;9.80;99.90
18091;DHT22;9172;49.948;9.208;2023-02-23T09:16:45;9.90;99.90
18091;DHT22;9172;49.948;9.208;2023-02-23T09:19:13;9.90;99.90
18091;DHT22;9172;49.948;9.208;2023-02-23T09:21:43;9.90;99.90
18091;DHT22;9172;49.948;9.208;2023-02-23T09:24:11;9.90;99.90
18091;DHT22;9172;49.948;9.208;2023-02-23T09:26:40;10.00;99.90
18091;DHT22;9172;49.948;9.208;2023-02-23T09:29:08;10.00;99.90
18091;DHT22;9172;49.948;9.208;2023-02-23T09:31:39;10.00;99.90
18091;DHT22;9172;49.948;9.208;2023-02-23T09:34:09;10.00;99.90
18091;DHT22;9172;49.948;9.208;2023-02-23T09:36:39;10.00;99.90
18091;DHT22;9172;49.948;9.208;2023-02-23T09:39:08;10.10;99.90
18091;DHT22;9172;49.948;9.208;2023-02-23T09:41:58;10.10;99.90
18091;DHT22;9172;49.948;9.208;2023-02-23T09:44:43;10.10;99.90
18091;DHT22;9172;49.948;9.208;2023-02-23T09:47:25;10.10;99.90
18091;DHT22;9172;49.948;9.208;2023-02-23T09:49:57;10.10;99.90
18091;DHT22;9172;49.948;9.208;2023-02-23T09:52:31;10.20;99.90
18091;DHT22;9172;49.948;9.208;2023-02-23T09:55:00;10.20;99.90
18091;DHT22;9172;49.948;9.208;2023-02-23T09:57:32;10.20;99.90
18091;DHT22;9172;49.948;9.208;2023-02-23T10:00:05;10.20;99.90
18091;DHT22;9172;49.948;9.208;2023-02-23T10:02:35;10.20;99.90
18091;DHT22;9172;49.948;9.208;2023-02-23T10:05:06;10.20;99.90
18091;DHT22;9172;49.948;9.208;2023-02-23T10:07:41;10.20;99.90
18091;DHT22;9172;49.948;9.208;2023-02-23T10:10:17;10.20;99.90
18091;DHT22;9172;49.948;9.208;2023-02-23T10:12:52;10.30;99.90
18091;DHT22;9172;49.948;9.208;2023-02-23T10:15:27;10.30;99.90
18091;DHT22;9172;49.948;9.208;2023-02-23T10:18:02;10.30;99.90
18091;DHT22;9172;49.948;9.208;2023-02-23T10:20:36;10.40;99.90
18091;DHT22;9172;49.948;9.208;2023-02-23T10:23:07;10.40;99.90
18091;DHT22;9172;49.948;9.208;2023-02-23T10:25:40;10.40;99.90
18091;DHT22;9172;49.948;9.208;2023-02-23T10:28:12;10.30;99.90
18091;DHT22;9172;49.948;9.208;2023-02-23T10:30:43;10.30;99.90
18091;DHT22;9172;49.948;9.208;2023-02-23T10:33:15;10.30;99.90
18091;DHT22;9172;49.948;9.208;2023-02-23T10:35:45;10.40;99.90
18091;DHT22;9172;49.948;9.208;2023-02-23T10:38:16;10.40;99.90
18091;DHT22;9172;49.948;9.208;2023-02-23T10:40:48;10.50;99.90
18091;DHT22;9172;49.948;9.208;2023-02-23T10:43:17;10.60;99.90
18091;DHT22;9172;49.948;9.208;2023-02-23T10:45:48;10.60;99.90
18091;DHT22;9172;49.948;9.208;2023-02-23T10:48:19;10.60;99.90
18091;DHT22;9172;49.948;9.208;2023-02-23T10:50:51;10.60;99.90
18091;DHT22;9172;49.948;9.208;2023-02-23T10:53:24;10.60;99.90
18091;DHT22;9172;49.948;9.208;2023-02-23T10:56:02;10.60;99.90
18091;DHT22;9172;49.948;9.208;2023-02-23T10:58:39;10.60;99.90
18091;DHT22;9172;49.948;9.208;2023-02-23T11:01:09;10.60;99.90
18091;DHT22;9172;49.948;9.208;2023-02-23T11:03:40;10.60;99.90
18091;DHT22;9172;49.948;9.208;2023-02-23T11:06:26;10.50;99.90
18091;DHT22;9172;49.948;9.208;2023-02-23T11:08:55;10.50;99.90
18091;DHT22;9172;49.948;9.208;2023-02-23T11:11:26;10.50;99.90
18091;DHT22;9172;49.948;9.208;2023-02-23T11:13:56;10.50;99.90
18091;DHT22;9172;49.948;9.208;2023-02-23T11:16:27;10.50;99.90
18091;DHT22;9172;49.948;9.208;2023-02-23T11:18:58;10.50;99.90
18091;DHT22;9172;49.948;9.208;2023-02-23T11:21:29;10.50;99.90
18091;DHT22;9172;49.948;9.208;2023-02-23T11:24:02;10.50;99.90
18091;DHT22;9172;49.948;9.208;2023-02-23T11:26:36;10.60;99.90
18091;DHT22;9172;49.948;9.208;2023-02-23T11:29:12;10.60;99.90
18091;DHT22;9172;49.948;9.208;2023-02-23T11:31:46;10.60;99.90
18091;DHT22;9172;49.948;9.208;2023-02-23T11:34:29;10.70;99.90
18091;DHT22;9172;49.948;9.208;2023-02-23T11:37:01;10.70;99.90
18091;DHT22;9172;49.948;9.208;2023-02-23T11:39:31;10.80;99.90
18091;DHT22;9172;49.948;9.208;2023-02-23T11:42:18;10.80;99.90
18091;DHT22;9172;49.948;9.208;2023-02-23T11:44:51;10.90;99.90
18091;DHT22;9172;49.948;9.208;2023-02-23T11:47:21;11.00;99.90
18091;DHT22;9172;49.948;9.208;2023-02-23T11:49:53;11.00;99.90
18091;DHT22;9172;49.948;9.208;2023-02-23T11:52:24;11.10;99.90
18091;DHT22;9172;49.948;9.208;2023-02-23T11:54:56;11.10;99.90
18091;DHT22;9172;49.948;9.208;2023-02-23T11:57:28;11.10;99.90
18091;DHT22;9172;49.948;9.208;2023-02-23T11:59:59;11.20;99.90
18091;DHT22;9172;49.948;9.208;2023-02-23T12:02:29;11.10;99.90
18091;DHT22;9172;49.948;9.208;2023-02-23T12:05:05;11.10;99.90
18091;DHT22;9172;49.948;9.208;2023-02-23T12:07:37;11.10;99.90
18091;DHT22;9172;49.948;9.208;2023-02-23T12:10:15;11.20;99.90
18091;DHT22;9172;49.948;9.208;2023-02-23T12:12:50;11.20;99.90
18091;DHT22;9172;49.948;9.208;2023-02-23T12:15:23;11.20;99.90
18091;DHT22;9172;49.948;9.208;2023-02-23T12:17:57;11.10;99.90
18091;DHT22;9172;49.948;9.208;2023-02-23T12:20:29;11.10;99.90
18091;DHT22;9172;49.948;9.208;2023-02-23T12:23:01;11.10;99.90
18091;DHT22;9172;49.948;9.208;2023-02-23T12:25:33;11.10;99.90
18091;DHT22;9172;49.948;9.208;2023-02-23T12:28:08;11.10;99.90
18091;DHT22;9172;49.948;9.208;2023-02-23T12:30:41;11.10;99.90
18091;DHT22;9172;49.948;9.208;2023-02-23T12:33:12;11.10;99.90
18091;DHT22;9172;49.948;9.208;2023-02-23T12:35:47;11.10;99.90
18091;DHT22;9172;49.948;9.208;2023-02-23T12:38:20;11.00;99.90
18091;DHT22;9172;49.948;9.208;2023-02-23T12:40:56;11.00;99.90
18091;DHT22;9172;49.948;9.208;2023-02-23T12:43:29;11.00;99.90
18091;DHT22;9172;49.948;9.208;2023-02-23T12:46:04;11.00;99.90
18091;DHT22;9172;49.948;9.208;2023-02-23T12:48:36;11.00;99.90
18091;DHT22;9172;49.948;9.208;2023-02-23T12:51:09;11.00;99.90
18091;DHT22;9172;49.948;9.208;2023-02-23T12:53:41;11.00;99.90
18091;DHT22;9172;49.948;9.208;2023-02-23T12:56:18;11.00;99.90
18091;DHT22;9172;49.948;9.208;2023-02-23T12:58:49;11.00;99.90
18091;DHT22;9172;49.948;9.208;2023-02-23T13:01:21;11.10;99.90
18091;DHT22;9172;49.948;9.208;2023-02-23T13:04:03;11.10;99.90
18091;DHT22;9172;49.948;9.208;2023-02-23T13:06:37;11.10;99.90
18091;DHT22;9172;49.948;9.208;2023-02-23T13:09:17;11.10;99.90
18091;DHT22;9172;49.948;9.208;2023-02-23T13:12:06;11.10;99.90
18091;DHT22;9172;49.948;9.208;2023-02-23T13:14:40;11.20;99.90
18091;DHT22;9172;49.948;9.208;2023-02-23T13:17:17;11.10;99.90
18091;DHT22;9172;49.948;9.208;2023-02-23T13:19:46;11.10;99.90
18091;DHT22;9172;49.948;9.208;2023-02-23T13:22:25;11.10;99.90
18091;DHT22;9172;49.948;9.208;2023-02-23T13:24:56;11.10;99.90
18091;DHT22;9172;49.948;9.208;2023-02-23T13:27:28;11.20;99.90
18091;DHT22;9172;49.948;9.208;2023-02-23T13:29:58;11.20;99.90
18091;DHT22;9172;49.948;9.208;2023-02-23T13:32:31;11.20;99.90
18091;DHT22;9172;49.948;9.208;2023-02-23T13:35:00;11.20;99.90
18091;DHT22;9172;49.948;9.208;2023-02-23T13:37:32;11.30;99.90
18091;DHT22;9172;49.948;9.208;2023-02-23T13:40:13;11.30;99.90
18091;DHT22;9172;49.948;9.208;2023-02-23T13:42:47;11.30;99.90
18091;DHT22;9172;49.948;9.208;2023-02-23T13:48:17;11.40;99.90
18091;DHT22;9172;49.948;9.208;2023-02-23T13:50:49;11.40;99.90
18091;DHT22;9172;49.948;9.208;2023-02-23T13:53:35;11.40;99.90
18091;DHT22;9172;49.948;9.208;2023-02-23T13:56:06;11.50;99.90
18091;DHT22;9172;49.948;9.208;2023-02-23T13:58:35;11.50;99.90
18091;DHT22;9172;49.948;9.208;2023-02-23T14:01:16;11.60;99.90
18091;DHT22;9172;49.948;9.208;2023-02-23T14:03:51;11.60;99.90
18091;DHT22;9172;49.948;9.208;2023-02-23T14:06:24;11.60;99.90
18091;DHT22;9172;49.948;9.208;2023-02-23T14:08:56;11.60;99.90
18091;DHT22;9172;49.948;9.208;2023-02-23T14:11:47;11.60;99.90
18091;DHT22;9172;49.948;9.208;2023-02-23T14:14:39;11.60;99.90
18091;DHT22;9172;49.948;9.208;2023-02-23T14:17:39;11.50;99.90
18091;DHT22;9172;49.948;9.208;2023-02-23T14:20:18;11.50;99.90
18091;DHT22;9172;49.948;9.208;2023-02-23T14:23:29;11.50;99.90
18091;DHT22;9172;49.948;9.208;2023-02-23T14:26:12;11.50;99.90
18091;DHT22;9172;49.948;9.208;2023-02-23T14:28:43;11.50;99.90
18091;DHT22;9172;49.948;9.208;2023-02-23T14:31:22;11.50;99.90
18091;DHT22;9172;49.948;9.208;2023-02-23T14:33:58;11.50;99.90
18091;DHT22;9172;49.948;9.208;2023-02-23T14:36:45;11.40;99.90
18091;DHT22;9172;49.948;9.208;2023-02-23T14:39:17;11.40;99.90
18091;DHT22;9172;49.948;9.208;2023-02-23T14:41:50;11.40;99.90
18091;DHT22;9172;49.948;9.208;2023-02-23T14:44:23;11.40;99.90
18091;DHT22;9172;49.948;9.208;2023-02-23T14:46:56;11.30;99.90
18091;DHT22;9172;49.948;9.208;2023-02-23T14:52:06;11.30;99.90
18091;DHT22;9172;49.948;9.208;2023-02-23T14:54:38;11.30;99.90
18091;DHT22;9172;49.948;9.208;2023-02-23T14:57:15;11.30;99.90
18091;DHT22;9172;49.948;9.208;2023-02-23T14:59:51;11.30;99.90
18091;DHT22;9172;49.948;9.208;2023-02-23T15:02:18;11.20;99.90
18091;DHT22;9172;49.948;9.208;2023-02-23T15:04:47;11.20;99.90
18091;DHT22;9172;49.948;9.208;2023-02-23T15:07:18;11.20;99.90
18091;DHT22;9172;49.948;9.208;2023-02-23T15:09:51;11.20;99.90
18091;DHT22;9172;49.948;9.208;2023-02-23T15:12:22;11.10;99.90
18091;DHT22;9172;49.948;9.208;2023-02-23T15:14:55;11.10;99.90
18091;DHT22;9172;49.948;9.208;2023-02-23T15:17:27;11.10;99.90
18091;DHT22;9172;49.948;9.208;2023-02-23T15:20:00;11.10;99.90
18091;DHT22;9172;49.948;9.208;2023-02-23T15:22:31;11.20;99.90
18091;DHT22;9172;49.948;9.208;2023-02-23T15:25:05;11.20;99.90
18091;DHT22;9172;49.948;9.208;2023-02-23T15:27:38;11.20;99.90
18091;DHT22;9172;49.948;9.208;2023-02-23T15:30:21;11.20;99.90
18091;DHT22;9172;49.948;9.208;2023-02-23T15:33:00;11.20;99.90
18091;DHT22;9172;49.948;9.208;2023-02-23T15:35:30;11.20;99.90
18091;DHT22;9172;49.948;9.208;2023-02-23T15:38:00;11.20;99.90
18091;DHT22;9172;49.948;9.208;2023-02-23T15:40:29;11.20;99.90
18091;DHT22;9172;49.948;9.208;2023-02-23T15:42:59;11.20;99.90
18091;DHT22;9172;49.948;9.208;2023-02-23T15:45:30;11.20;99.90
18091;DHT22;9172;49.948;9.208;2023-02-23T15:48:02;11.20;99.90
18091;DHT22;9172;49.948;9.208;2023-02-23T15:50:34;11.20;99.90
18091;DHT22;9172;49.948;9.208;2023-02-23T15:55:42;11.20;99.90
18091;DHT22;9172;49.948;9.208;2023-02-23T16:00:53;11.20;99.90
18091;DHT22;9172;49.948;9.208;2023-02-23T16:03:28;11.20;99.90
18091;DHT22;9172;49.948;9.208;2023-02-23T16:06:01;11.20;99.90
18091;DHT22;9172;49.948;9.208;2023-02-23T16:08:30;11.20;99.90
18091;DHT22;9172;49.948;9.208;2023-02-23T16:11:07;11.20;99.90
18091;DHT22;9172;49.948;9.208;2023-02-23T16:16:18;11.20;99.90
18091;DHT22;9172;49.948;9.208;2023-02-23T16:18:52;11.20;99.90
18091;DHT22;9172;49.948;9.208;2023-02-23T16:21:23;11.20;99.90
18091;DHT22;9172;49.948;9.208;2023-02-23T16:23:53;11.20;99.90
18091;DHT22;9172;49.948;9.208;2023-02-23T16:26:27;11.10;99.90
18091;DHT22;9172;49.948;9.208;2023-02-23T16:28:57;11.10;99.90
18091;DHT22;9172;49.948;9.208;2023-02-23T16:31:39;11.10;99.90
18091;DHT22;9172;49.948;9.208;2023-02-23T16:34:19;11.10;99.90
18091;DHT22;9172;49.948;9.208;2023-02-23T16:36:54;11.10;99.90
18091;DHT22;9172;49.948;9.208;2023-02-23T16:39:25;11.10;99.90
18091;DHT22;9172;49.948;9.208;2023-02-23T16:41:54;11.10;99.90
18091;DHT22;9172;49.948;9.208;2023-02-23T16:44:26;11.00;99.90
18091;DHT22;9172;49.948;9.208;2023-02-23T16:47:09;11.00;99.90
18091;DHT22;9172;49.948;9.208;2023-02-23T16:49:28;11.00;99.90
18091;DHT22;9172;49.948;9.208;2023-02-23T16:54:34;11.00;99.90
18091;DHT22;9172;49.948;9.208;2023-02-23T16:57:04;10.90;99.90
18091;DHT22;9172;49.948;9.208;2023-02-23T16:59:33;10.90;99.90
18091;DHT22;9172;49.948;9.208;2023-02-23T17:02:02;10.90;99.90
18091;DHT22;9172;49.948;9.208;2023-02-23T17:04:32;10.90;99.90
18091;DHT22;9172;49.948;9.208;2023-02-23T17:09:36;10.90;99.90
18091;DHT22;9172;49.948;9.208;2023-02-23T17:12:07;10.80;99.90
18091;DHT22;9172;49.948;9.208;2023-02-23T17:17:15;10.80;99.90
18091;DHT22;9172;49.948;9.208;2023-02-23T17:19:43;10.70;99.90
18091;DHT22;9172;49.948;9.208;2023-02-23T17:22:12;10.70;99.90
18091;DHT22;9172;49.948;9.208;2023-02-23T17:24:42;10.60;99.90
18091;DHT22;9172;49.948;9.208;2023-02-23T17:29:51;10.50;99.90
18091;DHT22;9172;49.948;9.208;2023-02-23T17:34:56;10.50;99.90
18091;DHT22;9172;49.948;9.208;2023-02-23T17:37:26;10.50;99.90
18091;DHT22;9172;49.948;9.208;2023-02-23T17:39:55;10.60;99.90
18091;DHT22;9172;49.948;9.208;2023-02-23T17:42:28;10.60;99.90
18091;DHT22;9172;49.948;9.208;2023-02-23T17:45:01;10.60;99.90